createdAt,value
2022-11-23T00:00:28.840Z,69.21
2022-11-23T00:05:33.714Z,69.30
2022-11-23T00:10:36.996Z,68.90
2022-11-23T00:15:42.243Z,69.76
2022-11-23T00:20:47.070Z,69.96
2022-11-23T00:25:50.236Z,69.35
2022-11-23T00:30:53.488Z,69.96
2022-11-23T00:36:06.486Z,70.45
2022-11-23T00:41:12.365Z,70.56
2022-11-23T00:46:18.255Z,70.48
2022-11-23T00:51:24.773Z,69.92
2022-11-23T00:56:28.203Z,70.71
2022-11-23T01:01:34.098Z,70.88
2022-11-23T01:06:41.061Z,70.46
2022-11-23T01:11:45.077Z,70.71
2022-11-23T01:16:48.500Z,70.39
2022-11-23T01:21:53.161Z,70.91
2022-11-23T01:26:57.052Z,70.49
2022-11-23T01:32:00.211Z,70.05
2022-11-23T01:37:04.878Z,70.64
2022-11-23T01:42:08.786Z,70.75
2022-11-23T01:47:12.363Z,70.03
2022-11-23T01:52:21.847Z,70.54
2022-11-23T01:57:28.934Z,70.88
2022-11-23T02:02:34.017Z,70.04
2022-11-23T02:07:40.261Z,70.45
2022-11-23T02:12:43.463Z,70.67
2022-11-23T02:17:47.721Z,69.81
2022-11-23T02:23:05.652Z,70.40
2022-11-23T02:28:11.114Z,70.56
2022-11-23T02:33:14.409Z,70.47
2022-11-23T02:38:18.541Z,70.78
2022-11-23T02:43:23.364Z,70.40
2022-11-23T02:48:27.429Z,70.51
2022-11-23T02:53:30.545Z,70.00
2022-11-23T02:58:35.102Z,70.27
2022-11-23T03:03:38.407Z,70.15
2022-11-23T03:08:41.601Z,70.61
2022-11-23T03:13:46.141Z,70.60
2022-11-23T03:18:49.521Z,70.44
2022-11-23T03:23:53.017Z,70.36
2022-11-23T03:28:57.583Z,70.21
2022-11-23T03:34:00.784Z,71.14
2022-11-23T03:39:04.087Z,71.01
2022-11-23T03:44:08.740Z,70.90
2022-11-23T03:49:12.766Z,70.25
2022-11-23T03:54:16.063Z,70.85
2022-11-23T03:59:20.760Z,71.14
2022-11-23T04:04:24.078Z,70.73
2022-11-23T04:09:27.363Z,70.48
2022-11-23T04:14:32.053Z,70.33
2022-11-23T04:19:35.581Z,70.44
2022-11-23T04:24:38.786Z,70.64
2022-11-23T04:29:43.530Z,70.28
2022-11-23T04:34:46.814Z,69.98
2022-11-23T04:39:50.097Z,70.56
2022-11-23T04:44:55.257Z,70.61
2022-11-23T04:49:58.723Z,70.13
2022-11-23T04:55:01.919Z,70.45
2022-11-23T05:00:09.384Z,70.27
2022-11-23T05:05:12.753Z,69.68
2022-11-23T05:10:16.128Z,70.41
2022-11-23T05:15:20.920Z,70.39
2022-11-23T05:20:24.467Z,70.41
2022-11-23T05:25:28.260Z,70.37
2022-11-23T05:30:33.081Z,70.78
2022-11-23T05:35:36.243Z,70.15
2022-11-23T05:40:39.453Z,69.89
2022-11-23T05:45:44.077Z,70.35
2022-11-23T05:50:47.215Z,65.52
2022-11-23T05:55:50.369Z,63.60
2022-11-23T06:00:59.182Z,62.19
2022-11-23T06:06:02.530Z,63.77
2022-11-23T06:11:06.048Z,64.31
2022-11-23T06:16:10.747Z,63.42
2022-11-23T06:21:13.982Z,62.40
2022-11-23T06:26:17.264Z,63.16
2022-11-23T06:31:21.998Z,63.78
2022-11-23T06:36:25.045Z,64.16
2022-11-23T06:41:32.385Z,64.43
2022-11-23T06:46:37.504Z,65.82
2022-11-23T06:51:40.806Z,65.95
2022-11-23T06:56:44.120Z,65.96
2022-11-23T07:01:49.818Z,66.23
2022-11-23T07:06:53.077Z,66.47
2022-11-23T07:11:56.294Z,66.80
2022-11-23T07:17:01.150Z,67.30
2022-11-23T07:22:04.496Z,67.57
2022-11-23T07:27:07.928Z,67.75
2022-11-23T07:32:14.865Z,67.54
2022-11-23T07:37:18.157Z,67.97
2022-11-23T07:42:33.458Z,67.51
2022-11-23T07:47:41.265Z,68.33
2022-11-23T07:52:44.462Z,68.27
2022-11-23T07:57:47.657Z,68.28
2022-11-23T08:03:25.426Z,68.72
2022-11-23T08:08:15.719Z,67.86
2022-11-23T08:13:19.179Z,68.82
2022-11-23T08:18:24.211Z,68.72
2022-11-23T08:23:27.687Z,67.76
2022-11-23T08:28:30.873Z,67.38
2022-11-23T08:33:35.657Z,68.59
2022-11-23T08:38:38.976Z,68.29
2022-11-23T08:43:42.300Z,68.53
2022-11-23T08:48:47.095Z,67.84
2022-11-23T08:53:50.879Z,67.90
2022-11-23T08:58:54.088Z,67.84
2022-11-23T09:03:59.005Z,68.37
2022-11-23T09:09:02.507Z,68.32
2022-11-23T09:14:05.967Z,67.92
2022-11-23T09:19:14.183Z,67.88
2022-11-23T09:24:17.443Z,67.85
2022-11-23T09:29:20.960Z,67.99
2022-11-23T09:34:25.540Z,68.20
2022-11-23T09:39:28.723Z,67.32
2022-11-23T09:44:49.396Z,66.48
2022-11-23T09:50:03.206Z,66.89
2022-11-23T09:55:17.641Z,67.87
2022-11-23T10:00:24.071Z,68.19
2022-11-23T10:05:34.883Z,67.95
2022-11-23T10:10:43.358Z,66.98
2022-11-23T10:15:58.020Z,67.70
2022-11-23T10:21:16.367Z,65.99
2022-11-23T10:26:23.176Z,66.18
2022-11-23T10:31:27.159Z,65.36
2022-11-23T10:36:36.177Z,65.46
2022-11-23T10:41:39.608Z,66.06
2022-11-23T10:46:42.991Z,66.59
2022-11-23T10:51:56.282Z,66.38
2022-11-23T10:57:01.184Z,67.15
2022-11-23T11:02:12.915Z,66.74
2022-11-23T11:07:28.720Z,66.95
2022-11-23T11:12:35.550Z,67.21
2022-11-23T11:17:39.837Z,67.54
2022-11-23T11:22:47.822Z,67.44
2022-11-23T11:27:53.514Z,67.57
2022-11-23T11:33:01.936Z,68.08
2022-11-23T11:38:16.470Z,68.05
2022-11-23T11:43:29.425Z,67.60
2022-11-23T11:48:39.857Z,68.27
2022-11-23T11:53:51.036Z,67.75
2022-11-23T11:59:02.836Z,68.11
2022-11-23T12:04:11.924Z,68.27
2022-11-23T12:09:21.636Z,67.71
2022-11-23T12:14:25.142Z,68.26
2022-11-23T12:19:32.880Z,68.44
2022-11-23T12:25:01.210Z,68.27
2022-11-23T12:30:23.395Z,67.95
2022-11-23T12:35:43.750Z,68.08
2022-11-23T12:41:05.561Z,68.10
2022-11-23T12:46:14.737Z,68.43
2022-11-23T12:51:27.426Z,68.32
2022-11-23T12:56:59.666Z,67.95
2022-11-23T13:02:11.037Z,68.15
2022-11-23T13:07:49.048Z,68.66
2022-11-23T13:13:17.810Z,68.25
2022-11-23T13:18:37.018Z,69.10
2022-11-23T13:23:41.283Z,68.81
2022-11-23T13:28:47.455Z,68.77
2022-11-23T13:33:52.841Z,69.34
2022-11-23T13:38:56.436Z,69.18
2022-11-23T13:44:13.433Z,69.04
2022-11-23T13:49:32.627Z,68.70
2022-11-23T13:54:35.985Z,68.51
2022-11-23T13:59:40.856Z,68.49
2022-11-23T14:04:44.722Z,68.52
2022-11-23T14:09:52.855Z,68.72
2022-11-23T14:15:04.937Z,68.45
2022-11-23T14:20:31.753Z,68.32
2022-11-23T14:25:45.613Z,68.86
2022-11-23T14:31:01.624Z,68.29
2022-11-23T14:36:14.161Z,68.64
2022-11-23T14:41:20.806Z,68.74
2022-11-23T14:46:26.200Z,68.91
2022-11-23T14:51:30.486Z,68.73
2022-11-23T14:56:36.229Z,68.52
2022-11-23T15:01:43.154Z,68.82
2022-11-23T15:06:51.181Z,68.79
2022-11-23T15:12:07.522Z,68.42
2022-11-23T15:17:20.812Z,68.34
2022-11-23T15:22:24.831Z,68.44
2022-11-23T15:27:29.518Z,67.64
2022-11-23T15:32:35.245Z,68.18
2022-11-23T15:37:45.786Z,67.89
2022-11-23T15:42:52.309Z,67.49
2022-11-23T15:48:01.505Z,68.03
2022-11-23T15:53:04.885Z,67.56
2022-11-23T15:58:10.711Z,68.19
2022-11-23T16:03:33.401Z,67.98
2022-11-23T16:08:38.458Z,67.89
2022-11-23T16:13:41.779Z,67.88
2022-11-23T16:18:48.492Z,67.75
2022-11-23T16:23:54.488Z,67.97
2022-11-23T16:28:59.937Z,67.48
2022-11-23T16:34:04.759Z,67.29
2022-11-23T16:39:07.817Z,67.63
2022-11-23T16:44:11.265Z,67.77
2022-11-23T16:49:21.214Z,67.46
2022-11-23T16:54:31.757Z,67.81
2022-11-23T16:59:36.158Z,67.61
2022-11-23T17:04:40.919Z,67.86
2022-11-23T17:09:44.211Z,67.56
2022-11-23T17:14:50.118Z,67.84
2022-11-23T17:19:56.607Z,67.96
2022-11-23T17:25:03.241Z,68.05
2022-11-23T17:30:13.029Z,68.11
2022-11-23T17:35:18.744Z,68.02
2022-11-23T17:40:23.968Z,67.76
2022-11-23T17:45:27.207Z,68.19
2022-11-23T17:50:31.823Z,67.87
2022-11-23T17:55:35.305Z,67.90
2022-11-23T18:00:40.152Z,67.87
2022-11-23T18:05:44.826Z,67.65
2022-11-23T18:10:48.394Z,67.86
2022-11-23T18:15:51.639Z,67.95
2022-11-23T18:20:56.672Z,68.04
2022-11-23T18:26:00.266Z,67.46
2022-11-23T18:31:04.134Z,67.58
2022-11-23T18:36:10.775Z,68.07
2022-11-23T18:41:16.528Z,67.71
2022-11-23T18:46:20.232Z,67.74
2022-11-23T18:51:24.886Z,67.78
2022-11-23T18:56:28.443Z,67.85
2022-11-23T19:01:31.863Z,67.70
2022-11-23T19:06:38.415Z,67.45
2022-11-23T19:11:41.716Z,67.30
2022-11-23T19:16:45.223Z,67.32
2022-11-23T19:21:49.814Z,67.11
2022-11-23T19:26:52.950Z,67.69
2022-11-23T19:31:58.177Z,67.47
2022-11-23T19:37:03.366Z,67.32
2022-11-23T19:42:06.678Z,67.48
2022-11-23T19:47:15.361Z,67.58
2022-11-23T19:52:22.189Z,67.40
2022-11-23T19:57:25.525Z,67.73
2022-11-23T20:02:30.256Z,67.49
2022-11-23T20:07:34.620Z,66.95
2022-11-23T20:12:37.843Z,67.04
2022-11-23T20:17:41.029Z,67.17
2022-11-23T20:22:45.729Z,67.00
2022-11-23T20:27:49.201Z,67.75
2022-11-23T20:32:52.433Z,67.04
2022-11-23T20:37:57.775Z,66.87
2022-11-23T20:43:01.174Z,66.95
2022-11-23T20:48:04.727Z,66.72
2022-11-23T20:53:11.867Z,66.95
2022-11-23T20:58:17.638Z,66.85
2022-11-23T21:03:20.968Z,66.52
2022-11-23T21:08:33.119Z,66.26
2022-11-23T21:13:55.030Z,66.17
2022-11-23T21:18:58.249Z,66.11
2022-11-23T21:24:03.008Z,66.06
2022-11-23T21:29:09.853Z,65.68
2022-11-23T21:34:19.265Z,65.52
2022-11-23T21:39:24.644Z,65.89
2022-11-23T21:44:27.915Z,65.70
2022-11-23T21:49:31.390Z,65.45
2022-11-23T21:54:36.406Z,65.74
2022-11-23T21:59:40.103Z,65.55
2022-11-23T22:04:43.356Z,65.17
2022-11-23T22:09:47.916Z,65.20
2022-11-23T22:14:51.057Z,64.97
2022-11-23T22:19:54.472Z,65.16
2022-11-23T22:24:59.163Z,64.92
2022-11-23T22:30:02.465Z,65.20
2022-11-23T22:35:08.214Z,64.92
2022-11-23T22:40:14.063Z,65.22
2022-11-23T22:45:17.471Z,64.50
2022-11-23T22:50:20.938Z,64.53
2022-11-23T22:55:25.621Z,64.57
2022-11-23T23:00:28.842Z,64.77
2022-11-23T23:05:32.207Z,64.51
2022-11-23T23:10:37.000Z,64.45
2022-11-23T23:15:40.008Z,63.95
2022-11-23T23:20:43.675Z,64.23
2022-11-23T23:25:48.207Z,64.32
2022-11-23T23:30:51.385Z,64.35
2022-11-23T23:35:54.488Z,64.27
2022-11-23T23:40:59.199Z,64.20
2022-11-23T23:46:03.276Z,63.43
2022-11-23T23:51:07.415Z,64.01
2022-11-23T23:56:15.172Z,63.98
